Time;durP1;ratioP1;P1;durP2;ratioP2;P2;SDS_P1;SDS_P2;PMS_P1;PMS_P2;Temp;Humidity;BMP_temperature;BMP_pressure;BME280_temperature;BME280_humidity;BME280_pressure;Samples;Min_cycle;Max_cycle;Signal;HPM_P1;HPM_P2
2022/03/15 00:00:34;;;;;;;30.67;15.60;;;3.80;99.90;;;;;;6182290;23;20049;-77
2022/03/15 00:03:00;;;;;;;31.38;15.15;;;3.90;99.90;;;;;;6157591;23;20494;-76
2022/03/15 00:05:26;;;;;;;35.35;16.05;;;3.90;99.90;;;;;;6159057;23;20029;-76
2022/03/15 00:07:52;;;;;;;31.63;14.73;;;4.00;99.90;;;;;;6187053;23;20028;-76
2022/03/15 00:10:18;;;;;;;31.35;14.93;;;4.00;99.90;;;;;;6162527;23;20024;-76
2022/03/15 00:12:45;;;;;;;36.45;14.68;;;4.00;99.90;;;;;;6187526;23;20325;-76
2022/03/15 00:15:12;;;;;;;37.63;15.50;;;4.00;99.90;;;;;;6187087;23;20485;-76
2022/03/15 00:17:38;;;;;;;30.33;15.25;;;4.00;99.90;;;;;;6187589;23;20440;-76
2022/03/15 00:20:09;;;;;;;33.63;14.45;;;4.00;99.90;;;;;;6162790;23;20020;-76
2022/03/15 00:22:36;;;;;;;26.77;13.02;;;4.00;99.90;;;;;;6187603;23;20027;-76
2022/03/15 00:25:08;;;;;;;25.55;12.98;;;4.00;99.90;;;;;;6187299;23;20088;-76
2022/03/15 00:27:34;;;;;;;23.85;13.15;;;4.00;99.90;;;;;;6187283;23;20074;-76
2022/03/15 00:30:03;;;;;;;30.58;15.20;;;3.90;99.90;;;;;;6212119;23;20020;-77
2022/03/15 00:32:29;;;;;;;27.77;14.75;;;3.90;99.90;;;;;;6186778;23;20111;-76
2022/03/15 00:34:54;;;;;;;33.00;15.23;;;3.90;99.90;;;;;;6187690;23;20016;-76
2022/03/15 00:37:20;;;;;;;32.25;14.98;;;4.20;99.90;;;;;;6187365;23;20326;-76
2022/03/15 00:39:46;;;;;;;29.70;14.43;;;3.90;99.90;;;;;;6162441;23;20086;-76
2022/03/15 00:42:12;;;;;;;24.73;14.23;;;3.90;99.90;;;;;;6187186;23;20017;-76
2022/03/15 00:44:38;;;;;;;30.55;14.98;;;4.00;99.90;;;;;;6187073;23;20027;-76
2022/03/15 00:47:05;;;;;;;32.38;15.02;;;4.00;99.90;;;;;;6186751;23;20012;-76
2022/03/15 00:49:32;;;;;;;29.85;15.27;;;3.90;99.90;;;;;;6187150;23;20360;-75
2022/03/15 00:51:57;;;;;;;30.65;14.75;;;3.90;99.90;;;;;;6185611;23;20023;-76
2022/03/15 00:54:23;;;;;;;29.60;13.88;;;3.90;99.90;;;;;;6136338;23;20012;-76
2022/03/15 00:56:52;;;;;;;28.88;15.52;;;4.20;99.90;;;;;;6185250;23;20342;-76
2022/03/15 00:59:19;;;;;;;34.22;15.52;;;4.00;99.90;;;;;;6185516;23;20024;-76
2022/03/15 01:01:45;;;;;;;30.27;13.65;;;4.00;99.90;;;;;;6185043;23;20040;-76
2022/03/15 01:04:12;;;;;;;26.27;13.70;;;4.00;99.90;;;;;;6184852;23;20027;-76
2022/03/15 01:06:38;;;;;;;26.63;14.65;;;4.10;99.90;;;;;;6167775;23;20044;-76
2022/03/15 01:09:05;;;;;;;29.38;12.75;;;4.10;99.90;;;;;;6180450;23;20021;-76
2022/03/15 01:11:31;;;;;;;28.63;13.13;;;4.00;99.90;;;;;;6180308;23;20028;-76
2022/03/15 01:13:57;;;;;;;26.10;13.27;;;4.20;99.90;;;;;;6130880;23;20013;-76
2022/03/15 01:16:22;;;;;;;27.25;13.32;;;3.90;99.90;;;;;;6180416;23;20469;-76
2022/03/15 01:18:48;;;;;;;21.92;12.45;;;4.00;99.90;;;;;;6180670;23;20028;-76
2022/03/15 01:21:14;;;;;;;28.25;11.63;;;3.90;99.90;;;;;;6180323;23;20021;-76
2022/03/15 01:23:41;;;;;;;24.80;11.82;;;3.80;99.90;;;;;;6180218;23;20017;-76
2022/03/15 01:26:06;;;;;;;24.60;13.15;;;3.70;99.90;;;;;;6155195;23;20536;-76
2022/03/15 01:28:33;;;;;;;24.85;12.52;;;3.70;99.90;;;;;;6180316;23;20093;-76
2022/03/15 01:30:59;;;;;;;26.52;12.38;;;3.70;99.90;;;;;;6155184;23;20346;-76
2022/03/15 01:33:25;;;;;;;28.60;12.98;;;3.70;99.90;;;;;;6180469;23;20052;-76
2022/03/15 01:35:51;;;;;;;35.10;13.40;;;3.90;99.90;;;;;;6155347;23;20013;-76
2022/03/15 01:38:16;;;;;;;29.83;13.73;;;3.70;99.90;;;;;;6130659;23;20095;-75
2022/03/15 01:40:42;;;;;;;29.77;13.57;;;3.70;99.90;;;;;;6180424;23;20017;-76
2022/03/15 01:43:08;;;;;;;29.88;13.82;;;3.70;99.90;;;;;;6155479;23;20469;-76
2022/03/15 01:45:36;;;;;;;32.10;14.23;;;3.60;99.90;;;;;;6155220;23;20095;-76
2022/03/15 01:48:03;;;;;;;29.90;13.63;;;3.60;99.90;;;;;;6155713;23;20017;-76
2022/03/15 01:50:29;;;;;;;31.45;13.55;;;3.50;99.90;;;;;;6180025;23;20096;-76
2022/03/15 01:52:56;;;;;;;25.65;13.43;;;3.40;99.90;;;;;;6180676;23;20460;-76
2022/03/15 01:55:22;;;;;;;23.25;11.77;;;3.40;99.90;;;;;;6130489;23;20024;-76
2022/03/15 01:57:48;;;;;;;21.73;12.18;;;3.30;99.90;;;;;;6180344;23;20009;-76
2022/03/15 02:00:15;;;;;;;24.35;12.20;;;3.30;99.90;;;;;;6180833;23;20021;-77
2022/03/15 02:02:40;;;;;;;20.88;11.05;;;3.20;99.90;;;;;;6179828;23;20028;-76
2022/03/15 02:05:06;;;;;;;21.98;12.13;;;3.20;99.90;;;;;;6130953;23;20021;-76
2022/03/15 02:07:32;;;;;;;24.58;12.95;;;3.20;99.90;;;;;;6153367;23;20024;-76
2022/03/15 02:09:58;;;;;;;23.38;12.27;;;3.10;99.90;;;;;;6154729;23;20032;-77
2022/03/15 02:12:23;;;;;;;28.52;11.98;;;3.10;99.90;;;;;;6154873;23;20455;-76
2022/03/15 02:14:49;;;;;;;26.45;12.20;;;3.10;99.90;;;;;;6155063;23;20024;-76
2022/03/15 02:17:15;;;;;;;26.60;12.43;;;3.00;99.90;;;;;;6154863;23;20025;-76
2022/03/15 02:19:43;;;;;;;29.45;12.02;;;3.00;99.90;;;;;;6154722;23;20088;-76
2022/03/15 02:22:09;;;;;;;28.02;13.25;;;3.00;99.90;;;;;;6154367;23;20464;-76
2022/03/15 02:24:35;;;;;;;21.85;11.93;;;3.00;99.90;;;;;;6154683;23;20048;-76
2022/03/15 02:27:01;;;;;;;22.88;11.73;;;3.00;99.90;;;;;;6154835;23;20048;-76
2022/03/15 02:29:27;;;;;;;28.73;12.15;;;2.90;99.90;;;;;;6153415;23;20426;-76
2022/03/15 02:31:53;;;;;;;29.25;11.77;;;2.90;99.90;;;;;;6152709;23;20017;-76
2022/03/15 02:34:19;;;;;;;24.30;12.98;;;2.90;99.90;;;;;;6154704;23;20111;-76
2022/03/15 02:36:45;;;;;;;25.63;12.45;;;3.00;99.90;;;;;;6154528;23;20054;-76
2022/03/15 02:39:12;;;;;;;28.60;13.73;;;2.90;99.90;;;;;;6154617;23;20016;-76
2022/03/15 02:41:38;;;;;;;31.27;13.07;;;2.90;99.90;;;;;;6154460;23;20025;-76
2022/03/15 02:44:04;;;;;;;30.35;12.82;;;2.80;99.90;;;;;;6155277;23;20481;-76
2022/03/15 02:46:31;;;;;;;22.45;13.13;;;2.80;99.90;;;;;;6154835;23;20017;-76
2022/03/15 02:48:57;;;;;;;24.00;12.43;;;2.80;99.90;;;;;;6154674;23;20017;-76
2022/03/15 02:51:24;;;;;;;19.80;11.43;;;2.70;99.90;;;;;;6130263;23;20385;-76
2022/03/15 02:53:53;;;;;;;22.65;10.85;;;2.60;99.90;;;;;;6154606;23;20020;-76
2022/03/15 02:56:19;;;;;;;24.70;12.60;;;2.70;99.90;;;;;;6154564;23;20021;-76
2022/03/15 02:58:45;;;;;;;25.13;13.68;;;2.60;99.90;;;;;;6154723;23;20141;-76
2022/03/15 03:01:11;;;;;;;22.65;12.60;;;2.60;99.90;;;;;;6154371;23;20067;-76
2022/03/15 03:03:37;;;;;;;19.42;11.57;;;2.50;99.90;;;;;;6154232;23;20017;-76
2022/03/15 03:06:04;;;;;;;22.45;11.93;;;2.50;99.90;;;;;;6130196;23;20027;-75
2022/03/15 03:08:31;;;;;;;22.58;12.27;;;2.50;99.90;;;;;;6129603;23;20027;-76
2022/03/15 03:10:58;;;;;;;24.77;13.30;;;2.50;99.90;;;;;;6179687;23;20013;-76
2022/03/15 03:13:27;;;;;;;27.00;15.13;;;2.50;99.90;;;;;;6129607;23;20531;-76
2022/03/15 03:15:56;;;;;;;27.08;15.25;;;2.40;99.90;;;;;;6154866;23;20024;-75
2022/03/15 03:18:23;;;;;;;26.95;14.30;;;2.40;99.90;;;;;;6154550;23;20013;-76
2022/03/15 03:20:49;;;;;;;22.48;13.55;;;2.40;99.90;;;;;;6179383;23;20086;-75
2022/03/15 03:23:16;;;;;;;18.52;11.73;;;2.40;99.90;;;;;;6154630;23;20524;-76
2022/03/15 03:25:42;;;;;;;29.95;11.88;;;2.30;99.90;;;;;;6179206;23;20107;-76
2022/03/15 03:28:08;;;;;;;17.20;11.93;;;2.30;99.90;;;;;;6154256;23;20025;-76
2022/03/15 03:30:37;;;;;;;16.23;11.38;;;2.20;99.90;;;;;;6105565;23;20428;-76
2022/03/15 03:33:03;;;;;;;20.83;12.90;;;2.40;99.90;;;;;;6154004;23;20088;-76
2022/03/15 03:35:30;;;;;;;20.38;12.93;;;2.20;99.90;;;;;;6153662;23;20027;-76
2022/03/15 03:37:56;;;;;;;20.70;13.35;;;2.20;99.90;;;;;;6180252;23;20433;-76
2022/03/15 03:40:22;;;;;;;20.25;12.50;;;2.20;99.90;;;;;;6154360;23;20488;-76
2022/03/15 03:42:48;;;;;;;24.60;13.45;;;2.20;99.90;;;;;;6179417;23;20021;-76
2022/03/15 03:45:14;;;;;;;20.98;13.18;;;2.30;99.90;;;;;;6179169;23;20024;-76
2022/03/15 03:47:40;;;;;;;28.42;13.10;;;2.20;99.90;;;;;;6179487;23;20059;-76
2022/03/15 03:50:08;;;;;;;19.90;12.25;;;2.20;99.90;;;;;;6178910;23;20021;-76
2022/03/15 03:52:34;;;;;;;19.05;12.07;;;2.20;99.90;;;;;;6154042;23;20048;-76
2022/03/15 03:55:00;;;;;;;17.35;11.27;;;2.10;99.90;;;;;;6178910;23;20107;-76
2022/03/15 03:57:26;;;;;;;15.43;9.68;;;2.20;99.90;;;;;;6154292;23;20013;-76
2022/03/15 03:59:51;;;;;;;16.70;10.75;;;2.20;99.90;;;;;;6154044;23;20523;-76
2022/03/15 04:02:17;;;;;;;15.55;11.20;;;2.20;99.90;;;;;;6178983;23;20064;-75
2022/03/15 04:04:43;;;;;;;14.07;9.93;;;2.20;99.90;;;;;;6154187;23;20079;-76
2022/03/15 04:07:11;;;;;;;14.57;10.07;;;2.20;99.90;;;;;;6177540;23;20055;-77
2022/03/15 04:09:38;;;;;;;16.92;10.68;;;2.20;99.90;;;;;;6159531;23;20420;-76
2022/03/15 04:12:06;;;;;;;16.00;10.95;;;2.20;99.90;;;;;;6159503;23;20161;-76
2022/03/15 04:14:34;;;;;;;15.90;11.25;;;2.30;99.90;;;;;;6209050;23;20017;-76
2022/03/15 04:17:01;;;;;;;18.85;11.57;;;2.30;99.90;;;;;;6209133;23;20526;-76
2022/03/15 04:19:26;;;;;;;18.67;12.10;;;2.30;99.90;;;;;;6184269;23;20028;-76
2022/03/15 04:21:52;;;;;;;14.10;10.73;;;2.30;99.90;;;;;;6184163;23;20024;-76
2022/03/15 04:24:18;;;;;;;17.55;12.30;;;2.30;99.90;;;;;;6159179;23;20460;-76
2022/03/15 04:26:46;;;;;;;16.88;13.30;;;2.40;99.90;;;;;;6212879;23;20055;-76
2022/03/15 04:29:12;;;;;;;19.33;12.10;;;2.40;99.90;;;;;;6185391;23;20020;-75
2022/03/15 04:31:37;;;;;;;19.55;12.55;;;2.40;99.90;;;;;;6161154;23;20020;-76
2022/03/15 04:34:03;;;;;;;23.35;13.68;;;2.50;99.90;;;;;;6185601;23;20029;-75
2022/03/15 04:36:30;;;;;;;22.33;14.25;;;2.40;99.90;;;;;;6185777;23;20025;-76
2022/03/15 04:38:56;;;;;;;24.60;14.48;;;2.50;99.90;;;;;;6185360;23;20092;-76
2022/03/15 04:41:21;;;;;;;32.13;17.65;;;2.50;99.90;;;;;;6185948;23;20058;-76
2022/03/15 04:43:47;;;;;;;40.72;19.45;;;2.50;99.90;;;;;;6185312;23;20020;-76
2022/03/15 04:46:13;;;;;;;40.78;20.15;;;2.50;99.90;;;;;;6185658;23;20028;-76
2022/03/15 04:48:39;;;;;;;49.15;22.83;;;2.60;99.90;;;;;;6186075;23;20020;-77
2022/03/15 04:51:05;;;;;;;48.08;23.55;;;2.60;99.90;;;;;;6185569;23;20816;-76
2022/03/15 04:53:31;;;;;;;51.72;24.15;;;2.70;99.90;;;;;;6211009;23;20016;-76
2022/03/15 04:55:57;;;;;;;49.47;24.40;;;2.70;99.90;;;;;;6185320;23;20021;-76
2022/03/15 04:58:23;;;;;;;56.28;28.35;;;2.80;99.90;;;;;;6185194;23;20013;-76
2022/03/15 05:00:49;;;;;;;59.47;29.55;;;2.80;99.90;;;;;;6160506;23;20033;-76
2022/03/15 05:03:16;;;;;;;55.50;29.25;;;2.90;99.90;;;;;;6185723;23;20075;-76
2022/03/15 05:05:44;;;;;;;57.20;26.95;;;2.90;99.90;;;;;;6179336;23;20028;-76
2022/03/15 05:08:10;;;;;;;50.30;25.75;;;3.00;99.90;;;;;;6155855;23;20025;-75
2022/03/15 05:13:20;;;;;;;46.30;22.98;;;3.00;99.90;;;;;;6155293;23;20258;-76
2022/03/15 05:15:47;;;;;;;45.17;22.67;;;3.10;99.90;;;;;;6179895;23;20167;-76
2022/03/15 05:18:13;;;;;;;44.60;22.80;;;3.10;99.90;;;;;;6180892;23;20353;-76
2022/03/15 05:20:39;;;;;;;46.22;23.90;;;3.10;99.90;;;;;;6155570;23;20021;-76
2022/03/15 05:23:05;;;;;;;47.47;25.30;;;3.10;99.90;;;;;;6155606;23;20052;-76
2022/03/15 05:25:31;;;;;;;40.22;22.27;;;3.10;99.90;;;;;;6180287;23;20024;-76
2022/03/15 05:27:57;;;;;;;65.38;25.42;;;3.10;99.90;;;;;;6155524;23;20013;-76
2022/03/15 05:30:23;;;;;;;58.53;26.15;;;3.10;99.90;;;;;;6180393;23;20017;-76
2022/03/15 05:32:49;;;;;;;46.42;25.35;;;3.30;99.90;;;;;;6180384;23;20337;-76
2022/03/15 05:35:16;;;;;;;54.45;25.40;;;3.30;99.90;;;;;;6180202;23;20016;-76
2022/03/15 05:37:41;;;;;;;45.28;22.88;;;3.30;99.90;;;;;;6179562;23;20353;-76
2022/03/15 05:40:09;;;;;;;37.35;20.83;;;3.30;99.90;;;;;;6179767;23;20024;-76
2022/03/15 05:42:35;;;;;;;41.00;23.10;;;3.30;99.90;;;;;;6131118;23;20020;-75
2022/03/15 05:45:02;;;;;;;36.30;19.75;;;3.30;99.90;;;;;;6153476;23;20023;-76
2022/03/15 05:47:28;;;;;;;39.97;21.20;;;3.30;99.90;;;;;;6177518;23;20020;-76
2022/03/15 05:49:53;;;;;;;58.40;27.30;;;3.30;99.90;;;;;;6179798;23;20099;-76
2022/03/15 05:52:19;;;;;;;58.50;28.45;;;3.40;99.90;;;;;;6153747;23;20397;-76
2022/03/15 05:54:45;;;;;;;72.72;33.17;;;3.50;99.90;;;;;;6177490;23;20021;-76
2022/03/15 05:57:11;;;;;;;70.80;31.17;;;3.50;99.90;;;;;;6153906;23;20497;-76
2022/03/15 05:59:37;;;;;;;67.75;31.42;;;3.70;99.90;;;;;;6154970;23;20021;-76
2022/03/15 06:02:03;;;;;;;74.38;33.65;;;3.80;99.90;;;;;;6154733;23;20017;-76
2022/03/15 06:04:28;;;;;;;80.05;34.50;;;4.00;99.90;;;;;;6155262;23;20021;-75
2022/03/15 06:06:58;;;;;;;77.45;35.80;;;4.00;99.90;;;;;;6154576;23;20028;-76
2022/03/15 06:09:24;;;;;;;70.18;33.60;;;4.20;99.90;;;;;;6154507;23;20017;-76
2022/03/15 06:11:51;;;;;;;77.18;36.88;;;4.30;99.90;;;;;;6154338;23;20017;-76
2022/03/15 06:14:20;;;;;;;76.60;33.00;;;4.30;99.90;;;;;;6154877;23;20019;-76
2022/03/15 06:16:46;;;;;;;76.88;36.28;;;4.40;99.90;;;;;;6154453;23;20025;-75
2022/03/15 06:19:12;;;;;;;74.57;35.05;;;4.50;99.90;;;;;;6179583;23;20028;-76
2022/03/15 06:21:39;;;;;;;79.03;34.45;;;4.50;99.90;;;;;;6154595;23;20021;-76
2022/03/15 06:24:06;;;;;;;72.70;34.47;;;4.50;99.90;;;;;;6154563;23;20028;-76
2022/03/15 06:26:33;;;;;;;73.93;34.78;;;4.60;99.90;;;;;;6179351;23;20021;-75
2022/03/15 06:28:59;;;;;;;66.68;33.85;;;4.60;99.90;;;;;;6154779;23;20349;-76
2022/03/15 06:31:27;;;;;;;62.67;32.88;;;4.60;99.90;;;;;;6179110;23;20025;-76
2022/03/15 06:33:53;;;;;;;70.20;33.13;;;4.70;99.90;;;;;;6154933;23;20027;-76
2022/03/15 06:36:18;;;;;;;74.55;32.13;;;4.70;99.90;;;;;;6154949;23;20103;-76
2022/03/15 06:38:44;;;;;;;66.15;31.95;;;4.70;99.90;;;;;;6155154;23;20017;-76
2022/03/15 06:41:11;;;;;;;67.22;33.33;;;4.80;99.90;;;;;;6179798;23;20028;-76
2022/03/15 06:43:39;;;;;;;61.63;30.38;;;4.80;99.90;;;;;;6180987;23;20028;-76
2022/03/15 06:46:05;;;;;;;64.25;32.55;;;4.80;99.90;;;;;;6179742;23;20017;-76
2022/03/15 06:48:31;;;;;;;60.70;31.98;;;4.90;99.90;;;;;;6154859;23;20453;-76
2022/03/15 06:50:57;;;;;;;62.80;31.63;;;4.90;99.90;;;;;;6155065;23;20027;-75
2022/03/15 06:53:24;;;;;;;63.20;32.35;;;4.90;99.90;;;;;;6155052;23;20032;-75
2022/03/15 06:55:50;;;;;;;58.15;31.90;;;5.00;99.90;;;;;;6154789;23;20013;-75
2022/03/15 06:58:17;;;;;;;51.28;29.63;;;5.00;99.90;;;;;;6154547;23;20017;-76
2022/03/15 07:00:43;;;;;;;61.30;32.47;;;5.00;99.90;;;;;;6154348;23;20064;-75
2022/03/15 07:03:09;;;;;;;59.28;30.65;;;5.00;99.90;;;;;;6154360;23;20100;-75
2022/03/15 07:05:35;;;;;;;61.15;31.00;;;5.10;99.90;;;;;;6183873;23;20091;-76
2022/03/15 07:08:01;;;;;;;52.10;28.83;;;5.10;99.90;;;;;;6184401;23;20082;-76
2022/03/15 07:10:27;;;;;;;57.13;26.92;;;5.10;99.90;;;;;;6209096;23;20109;-76
2022/03/15 07:12:53;;;;;;;54.25;29.30;;;5.10;99.90;;;;;;6135104;23;20020;-76
2022/03/15 07:15:20;;;;;;;58.85;30.30;;;5.10;99.90;;;;;;6159716;23;20315;-76
2022/03/15 07:17:54;;;;;;;57.90;28.83;;;5.10;99.90;;;;;;6209133;23;20444;-76
2022/03/15 07:20:21;;;;;;;59.60;30.27;;;5.10;99.90;;;;;;6159720;23;20020;-76
2022/03/15 07:22:47;;;;;;;55.40;30.25;;;5.10;99.90;;;;;;6184073;23;20017;-75
2022/03/15 07:25:13;;;;;;;54.97;29.02;;;5.10;99.90;;;;;;6159863;23;20052;-75
2022/03/15 07:27:39;;;;;;;53.50;29.92;;;5.20;99.90;;;;;;6184253;23;20043;-76
2022/03/15 07:30:06;;;;;;;59.60;30.42;;;5.10;99.90;;;;;;6183383;23;20029;-76
2022/03/15 07:32:32;;;;;;;54.08;29.90;;;5.20;99.90;;;;;;6209524;23;20024;-76
2022/03/15 07:34:57;;;;;;;55.60;30.55;;;5.20;99.90;;;;;;6184898;23;20012;-76
2022/03/15 07:37:23;;;;;;;61.42;30.55;;;5.20;99.90;;;;;;6159738;23;20088;-77
2022/03/15 07:39:49;;;;;;;63.55;29.77;;;5.20;99.90;;;;;;6176425;23;20032;-76
2022/03/15 07:42:15;;;;;;;52.35;29.60;;;5.30;99.90;;;;;;6152317;23;20435;-76
2022/03/15 07:44:42;;;;;;;56.38;31.65;;;5.30;99.90;;;;;;6177924;23;20016;-77
2022/03/15 07:47:09;;;;;;;57.20;30.13;;;5.40;99.90;;;;;;6183007;23;20020;-76
2022/03/15 07:49:34;;;;;;;55.58;30.10;;;5.40;99.90;;;;;;6183187;23;20017;-76
2022/03/15 07:52:00;;;;;;;61.78;33.03;;;5.50;99.90;;;;;;6184269;23;20027;-76
2022/03/15 07:54:26;;;;;;;57.92;31.55;;;5.50;99.90;;;;;;6184504;23;20017;-76
2022/03/15 07:56:52;;;;;;;53.17;30.67;;;5.50;99.90;;;;;;6159649;23;20459;-76
2022/03/15 07:59:18;;;;;;;56.60;29.17;;;5.60;99.90;;;;;;6159419;23;20070;-76
2022/03/15 08:01:44;;;;;;;54.95;30.27;;;5.60;99.90;;;;;;6185709;23;20028;-76
2022/03/15 08:04:10;;;;;;;55.35;30.42;;;5.60;99.90;;;;;;6186005;23;20016;-76
2022/03/15 08:06:36;;;;;;;55.15;30.55;;;5.70;99.90;;;;;;6169120;23;20056;-76
2022/03/15 08:09:05;;;;;;;54.58;30.83;;;5.70;99.90;;;;;;6156437;23;20017;-76
2022/03/15 08:11:33;;;;;;;49.15;29.33;;;5.70;99.90;;;;;;6157151;23;20024;-76
2022/03/15 08:13:59;;;;;;;47.22;28.95;;;5.80;99.90;;;;;;6156888;23;20023;-76
2022/03/15 08:16:25;;;;;;;52.90;29.67;;;5.80;99.90;;;;;;6181990;23;20021;-76
2022/03/15 08:18:53;;;;;;;56.83;30.15;;;5.90;99.90;;;;;;6131792;23;20024;-76
2022/03/15 08:21:20;;;;;;;48.70;28.88;;;5.90;99.90;;;;;;6156493;23;20014;-76
2022/03/15 08:23:46;;;;;;;54.17;28.25;;;6.00;99.90;;;;;;6156422;23;20064;-77
2022/03/15 08:26:14;;;;;;;47.85;28.48;;;6.00;99.90;;;;;;6156345;23;20017;-76
2022/03/15 08:28:40;;;;;;;45.88;26.48;;;6.00;99.90;;;;;;6156260;23;20093;-76
2022/03/15 08:31:06;;;;;;;52.70;28.80;;;6.10;99.90;;;;;;6182760;23;20016;-76
2022/03/15 08:33:32;;;;;;;49.30;27.10;;;6.10;99.90;;;;;;6131585;23;20017;-76
2022/03/15 08:35:58;;;;;;;52.90;28.20;;;6.10;99.90;;;;;;6182377;23;20399;-76
2022/03/15 08:38:25;;;;;;;52.20;28.40;;;6.20;99.90;;;;;;6131811;23;20088;-76
2022/03/15 08:40:52;;;;;;;49.45;29.10;;;6.20;99.90;;;;;;6156360;23;20021;-76
2022/03/15 08:43:17;;;;;;;49.22;29.20;;;6.30;99.90;;;;;;6181198;23;20052;-76
2022/03/15 08:45:43;;;;;;;49.25;27.30;;;6.20;99.90;;;;;;6181574;23;20048;-76
2022/03/15 08:48:09;;;;;;;49.08;27.02;;;6.20;99.90;;;;;;6181084;23;20075;-76
2022/03/15 08:50:35;;;;;;;46.28;26.67;;;6.30;99.90;;;;;;6131980;23;20021;-76
2022/03/15 08:53:01;;;;;;;46.42;27.70;;;6.20;99.90;;;;;;6156716;23;20480;-76
2022/03/15 08:55:28;;;;;;;47.55;28.52;;;6.30;99.90;;;;;;6181024;23;20358;-76
2022/03/15 08:57:54;;;;;;;52.10;28.13;;;6.30;99.90;;;;;;6156743;23;20020;-77
2022/03/15 09:00:21;;;;;;;53.50;30.02;;;6.20;99.90;;;;;;6181179;23;20049;-76
2022/03/15 09:02:46;;;;;;;48.65;28.65;;;6.20;99.90;;;;;;6180993;23;20021;-76
2022/03/15 09:05:13;;;;;;;50.58;27.55;;;6.20;99.90;;;;;;6130376;23;20059;-76
2022/03/15 09:07:40;;;;;;;47.20;28.50;;;6.30;99.90;;;;;;6178800;23;20574;-76
2022/03/15 09:10:07;;;;;;;49.03;27.58;;;6.40;99.90;;;;;;6153794;23;20056;-76
2022/03/15 09:12:34;;;;;;;51.00;28.98;;;6.40;99.90;;;;;;6155020;23;20020;-76
2022/03/15 09:15:00;;;;;;;48.05;29.27;;;6.50;99.90;;;;;;6152630;23;20095;-76
2022/03/15 09:17:25;;;;;;;47.40;28.02;;;6.50;99.90;;;;;;6176831;23;20106;-76
2022/03/15 09:19:51;;;;;;;46.20;28.85;;;6.60;99.90;;;;;;6156166;23;20075;-76
2022/03/15 09:22:18;;;;;;;47.92;28.05;;;6.70;99.90;;;;;;6181313;23;20096;-76
2022/03/15 09:24:44;;;;;;;46.88;27.23;;;6.70;99.90;;;;;;6131761;23;20096;-76
2022/03/15 09:27:12;;;;;;;46.33;28.02;;;6.80;99.90;;;;;;6156004;23;20059;-76
2022/03/15 09:29:38;;;;;;;48.20;28.08;;;6.80;99.90;;;;;;6156041;23;20017;-76
2022/03/15 09:32:05;;;;;;;39.63;27.17;;;6.80;99.90;;;;;;6155473;23;20024;-76
2022/03/15 09:34:30;;;;;;;43.25;28.00;;;6.90;99.90;;;;;;6156176;23;20013;-76
2022/03/15 09:36:59;;;;;;;46.28;28.23;;;7.00;99.90;;;;;;6156028;23;20092;-76
2022/03/15 09:39:25;;;;;;;42.55;27.67;;;7.00;99.90;;;;;;6131603;23;20021;-76
2022/03/15 09:41:54;;;;;;;37.63;26.15;;;7.00;99.90;;;;;;6156436;23;20522;-76
2022/03/15 09:44:24;;;;;;;44.10;26.67;;;7.10;99.90;;;;;;6156026;23;20024;-76
2022/03/15 09:46:51;;;;;;;41.97;27.35;;;7.10;99.90;;;;;;6156271;23;20188;-76
2022/03/15 09:49:18;;;;;;;39.80;26.30;;;7.20;99.90;;;;;;6142600;23;20021;-76
2022/03/15 09:51:46;;;;;;;39.78;26.48;;;7.30;99.90;;;;;;6150167;23;20021;-76
2022/03/15 09:54:13;;;;;;;43.05;27.27;;;7.30;99.90;;;;;;6155496;23;20052;-76
2022/03/15 09:56:40;;;;;;;39.25;25.90;;;7.40;99.90;;;;;;6155784;23;20017;-76
2022/03/15 09:59:11;;;;;;;41.40;26.08;;;7.50;99.90;;;;;;6154171;23;20464;-76
2022/03/15 10:01:39;;;;;;;39.70;25.25;;;7.60;99.90;;;;;;6155187;23;20028;-76
2022/03/15 10:04:05;;;;;;;41.40;25.08;;;7.60;99.90;;;;;;6180594;23;20079;-76
2022/03/15 10:06:31;;;;;;;42.17;26.67;;;7.70;99.90;;;;;;6130408;23;20128;-76
2022/03/15 10:08:56;;;;;;;39.83;27.00;;;7.70;99.90;;;;;;6157078;23;20017;-76
2022/03/15 10:11:23;;;;;;;40.35;27.73;;;7.70;99.90;;;;;;6131341;23;20067;-76
2022/03/15 10:13:50;;;;;;;45.63;27.25;;;7.80;99.90;;;;;;6131459;23;20508;-76
2022/03/15 10:16:16;;;;;;;45.05;27.90;;;7.90;99.90;;;;;;6130126;23;20017;-76
2022/03/15 10:18:53;;;;;;;38.85;27.42;;;7.90;99.90;;;;;;6174186;23;20020;-76
2022/03/15 10:21:20;;;;;;;44.38;27.58;;;8.00;99.90;;;;;;6124442;23;20123;-77
2022/03/15 10:23:46;;;;;;;41.30;26.35;;;8.00;99.90;;;;;;6155643;23;20360;-76
2022/03/15 10:26:27;;;;;;;40.95;27.48;;;8.00;99.90;;;;;;6154821;23;20353;-76
2022/03/15 10:28:54;;;;;;;43.53;26.67;;;8.10;99.90;;;;;;6154710;23;20021;-76
2022/03/15 10:31:24;;;;;;;48.22;27.83;;;8.20;99.90;;;;;;6155284;23;20558;-76
2022/03/15 10:33:54;;;;;;;43.83;27.85;;;8.20;99.90;;;;;;6155437;23;20017;-76
2022/03/15 10:36:22;;;;;;;38.92;26.63;;;8.30;99.90;;;;;;6155234;23;20500;-76
2022/03/15 10:38:51;;;;;;;40.10;26.63;;;8.40;99.90;;;;;;6154928;23;20045;-76
2022/03/15 10:41:18;;;;;;;38.80;25.83;;;8.40;99.90;;;;;;6154581;23;20013;-76
2022/03/15 10:43:49;;;;;;;38.47;25.95;;;8.40;99.90;;;;;;6179829;23;20021;-77
2022/03/15 10:46:22;;;;;;;44.22;26.67;;;8.50;99.90;;;;;;6154659;23;20057;-76
2022/03/15 10:49:02;;;;;;;44.85;27.25;;;8.50;99.90;;;;;;6154890;23;20013;-76
2022/03/15 10:51:28;;;;;;;38.00;26.35;;;8.50;99.90;;;;;;6154796;23;20465;-76
2022/03/15 10:54:03;;;;;;;37.78;23.80;;;8.50;99.90;;;;;;6155098;23;20024;-77
2022/03/15 10:56:29;;;;;;;39.25;25.23;;;8.50;99.90;;;;;;6155444;23;20103;-76
2022/03/15 10:59:03;;;;;;;37.35;25.40;;;8.50;99.90;;;;;;6155385;23;20086;-77
2022/03/15 11:01:38;;;;;;;42.50;26.58;;;8.60;99.90;;;;;;6154743;23;20055;-77
2022/03/15 11:04:11;;;;;;;38.08;25.63;;;8.60;99.90;;;;;;6155029;23;20021;-76
2022/03/15 11:06:44;;;;;;;40.55;25.17;;;8.70;99.90;;;;;;6130478;23;20025;-77
2022/03/15 11:09:28;;;;;;;37.70;25.30;;;8.70;99.90;;;;;;6155413;23;20021;-76
2022/03/15 11:12:04;;;;;;;36.75;24.80;;;8.80;99.90;;;;;;6180215;23;20025;-76
2022/03/15 11:14:57;;;;;;;37.00;25.00;;;8.90;99.90;;;;;;6180343;23;20079;-76
2022/03/15 11:17:25;;;;;;;38.03;23.60;;;9.00;99.90;;;;;;6155478;23;20021;-76
2022/03/15 11:19:53;;;;;;;37.08;24.02;;;9.10;99.90;;;;;;6154969;23;20352;-76
2022/03/15 11:22:22;;;;;;;33.80;24.75;;;9.20;99.90;;;;;;6154977;23;20020;-77
2022/03/15 11:25:05;;;;;;;34.88;22.67;;;9.30;99.90;;;;;;6154712;23;20013;-76
2022/03/15 11:27:54;;;;;;;37.70;23.23;;;9.40;99.90;;;;;;6154805;23;20017;-76
2022/03/15 11:30:20;;;;;;;35.10;24.00;;;9.50;99.90;;;;;;6130019;23;20025;-76
2022/03/15 11:32:47;;;;;;;33.80;23.10;;;9.60;99.90;;;;;;6153841;23;20322;-77
2022/03/15 11:35:14;;;;;;;35.83;22.60;;;9.70;99.90;;;;;;6129807;23;20063;-77
2022/03/15 11:37:42;;;;;;;32.78;22.35;;;9.80;99.90;;;;;;6179462;23;20021;-77
2022/03/15 11:40:10;;;;;;;35.30;24.10;;;9.80;99.90;;;;;;6156374;23;20393;-76
2022/03/15 11:42:43;;;;;;;31.08;22.67;;;9.90;99.90;;;;;;6154401;23;20021;-76
2022/03/15 11:45:15;;;;;;;;;;;10.00;99.90;;;;;;6131098;23;20094;-77
2022/03/15 11:47:56;;;;;;;31.57;22.43;;;10.10;99.90;;;;;;6154137;23;19935;-76
2022/03/15 11:50:51;;;;;;;32.67;22.15;;;10.20;99.90;;;;;;6129718;23;20021;-77
2022/03/15 11:53:23;;;;;;;30.23;21.67;;;10.30;99.90;;;;;;6179385;23;20017;-77
2022/03/15 11:56:01;;;;;;;34.53;21.98;;;10.50;99.90;;;;;;6179087;23;20092;-76
2022/03/15 11:58:28;;;;;;;28.80;20.48;;;10.50;99.90;;;;;;6154562;23;20016;-76
2022/03/15 12:00:57;;;;;;;29.20;21.40;;;10.60;99.90;;;;;;6129440;23;20039;-76
2022/03/15 12:03:23;;;;;;;28.13;19.75;;;10.60;99.90;;;;;;6129568;23;20210;-76
2022/03/15 12:05:53;;;;;;;28.25;19.05;;;10.60;99.90;;;;;;6130324;23;20075;-76
2022/03/15 12:08:24;;;;;;;27.77;18.33;;;10.60;99.90;;;;;;6184290;23;20016;-76
2022/03/15 12:10:52;;;;;;;34.03;19.52;;;10.60;99.90;;;;;;6183667;23;20017;-76
2022/03/15 12:13:20;;;;;;;29.60;19.30;;;10.60;99.90;;;;;;6208424;23;20017;-76
2022/03/15 12:15:50;;;;;;;31.73;17.50;;;10.70;99.90;;;;;;6159290;23;20020;-77
2022/03/15 12:21:07;;;;;;;26.15;18.23;;;10.60;99.90;;;;;;6183678;23;20559;-76
2022/03/15 12:23:45;;;;;;;30.73;19.45;;;10.70;99.90;;;;;;6184124;23;20538;-76
2022/03/15 12:26:22;;;;;;;27.58;18.30;;;10.80;99.90;;;;;;6183593;23;20021;-76
2022/03/15 12:29:13;;;;;;;26.92;20.02;;;10.90;99.90;;;;;;6206911;23;20060;-78
2022/03/15 12:31:47;;;;;;;28.60;18.55;;;11.00;99.90;;;;;;6183001;23;20020;-77
2022/03/15 12:34:18;;;;;;;28.15;19.08;;;11.00;99.90;;;;;;6180614;23;20020;-77
2022/03/15 12:36:59;;;;;;;22.98;17.67;;;11.10;99.90;;;;;;6206463;23;20013;-77
2022/03/15 12:39:34;;;;;;;30.40;18.48;;;11.10;99.90;;;;;;6182274;23;20439;-77
2022/03/15 12:42:10;;;;;;;29.08;17.60;;;11.20;99.90;;;;;;6181761;23;20029;-77